Mc Leod, Montana
Current Conditions -  °F | °C
As of 6:53 PM on Thursday 20 Nov 2014 (Local Time) from KLVM Reporting Station
Scattered Clouds Scattered Clouds  
Wind Chill: 35°   Ceiling: Unl
Heat Index: 43°   Visibility: 10mi
Dew Point: 22°   Wind: 17mph
Humidity: 43%   Direction: 250°WSW
Pressure: 29.88"   Gusts: 28mph
Location:  45.6625°N, 110.109°W
Report Text: KLVM 210153Z AUTO 25015G24KT 10SM SCT075 06/M06 A2988 RMK AO2 SLP122 T00611056
Loading
Personal Weather Stations






























Interactive Weather Map New forecast layout! Learn more

10-Day Weather Forecast

Advertisements
Track Severe Weather on mobile